createdAt,value
2023-05-11T00:01:36.662Z,14.00
2023-05-11T00:04:03.443Z,14.10
2023-05-11T00:06:30.188Z,14.10
2023-05-11T00:08:56.833Z,14.10
2023-05-11T00:11:23.799Z,14.10
2023-05-11T00:13:50.721Z,14.00
2023-05-11T00:16:17.496Z,14.00
2023-05-11T00:18:44.318Z,14.00
2023-05-11T00:21:11.029Z,14.00
2023-05-11T00:23:37.688Z,13.90
2023-05-11T00:26:04.423Z,14.00
2023-05-11T00:28:31.151Z,13.90
2023-05-11T00:30:58.334Z,13.90
2023-05-11T00:33:26.080Z,14.00
2023-05-11T00:35:52.951Z,14.00
2023-05-11T00:38:20.832Z,14.00
2023-05-11T00:40:49.491Z,14.00
2023-05-11T00:43:16.338Z,14.00
2023-05-11T00:45:44.544Z,14.00
2023-05-11T00:48:11.382Z,14.00
2023-05-11T00:50:38.339Z,14.00
2023-05-11T00:53:05.080Z,14.00
2023-05-11T00:55:31.777Z,14.00
2023-05-11T00:57:58.559Z,14.00
2023-05-11T01:00:25.795Z,14.00
2023-05-11T01:02:53.416Z,14.00
2023-05-11T01:05:20.537Z,14.00
2023-05-11T01:07:58.286Z,14.00
2023-05-11T01:10:41.773Z,14.00
2023-05-11T01:13:22.531Z,14.00
2023-05-11T01:15:56.227Z,14.00
2023-05-11T01:18:33.640Z,14.00
2023-05-11T01:21:02.134Z,13.90
2023-05-11T01:23:43.955Z,13.90
2023-05-11T01:26:26.583Z,13.90
2023-05-11T01:29:22.434Z,13.90
2023-05-11T01:31:50.531Z,13.90
2023-05-11T01:34:24.602Z,13.90
2023-05-11T01:37:00.738Z,13.80
2023-05-11T01:39:38.339Z,13.80
2023-05-11T01:42:09.926Z,13.80
2023-05-11T01:44:42.984Z,13.70
2023-05-11T01:47:11.994Z,13.70
2023-05-11T01:49:40.688Z,13.70
2023-05-11T01:52:09.826Z,13.60
2023-05-11T01:54:38.613Z,13.60
2023-05-11T01:57:06.099Z,13.60
2023-05-11T01:59:33.575Z,13.60
2023-05-11T02:02:02.300Z,13.50
2023-05-11T02:04:30.502Z,13.50
2023-05-11T02:06:59.440Z,13.50
2023-05-11T02:09:27.776Z,13.50
2023-05-11T02:11:57.571Z,13.50
2023-05-11T02:14:25.525Z,13.50
2023-05-11T02:16:53.253Z,13.40
2023-05-11T02:19:21.201Z,13.40
2023-05-11T02:21:49.684Z,13.40
2023-05-11T02:24:18.133Z,13.40
2023-05-11T02:26:45.055Z,13.40
2023-05-11T02:29:12.000Z,13.40
2023-05-11T02:31:44.514Z,13.50
2023-05-11T02:34:20.925Z,13.40
2023-05-11T02:39:38.598Z,13.50
2023-05-11T02:42:27.004Z,13.50
2023-05-11T02:45:02.964Z,13.60
2023-05-11T02:47:38.416Z,13.40
2023-05-11T02:50:08.305Z,13.50
2023-05-11T02:52:38.430Z,13.50
2023-05-11T02:55:06.927Z,13.50
2023-05-11T02:57:37.041Z,13.50
2023-05-11T03:00:19.122Z,13.50
2023-05-11T03:02:46.315Z,13.50
2023-05-11T03:05:13.546Z,13.60
2023-05-11T03:07:45.131Z,13.50
2023-05-11T03:10:13.401Z,13.50
2023-05-11T03:12:40.641Z,13.40
2023-05-11T03:15:12.676Z,13.40
2023-05-11T03:17:41.255Z,13.40
2023-05-11T03:20:10.011Z,13.40
2023-05-11T03:22:38.133Z,13.30
2023-05-11T03:25:07.468Z,13.30
2023-05-11T03:27:36.330Z,13.30
2023-05-11T03:30:14.519Z,13.30
2023-05-11T03:33:07.503Z,13.30
2023-05-11T03:36:12.646Z,13.40
2023-05-11T03:38:42.972Z,13.30
2023-05-11T03:41:12.145Z,13.40
2023-05-11T03:44:07.176Z,13.30
2023-05-11T03:46:36.588Z,13.40
2023-05-11T03:49:10.856Z,13.40
2023-05-11T03:51:43.451Z,13.40
2023-05-11T03:54:14.904Z,13.40
2023-05-11T03:56:43.441Z,13.40
2023-05-11T03:59:16.789Z,13.30
2023-05-11T04:01:44.653Z,13.40
2023-05-11T04:04:14.811Z,13.40
2023-05-11T04:06:52.468Z,13.40
2023-05-11T04:09:26.201Z,13.40
2023-05-11T04:12:04.598Z,13.40
2023-05-11T04:14:36.518Z,13.40
2023-05-11T04:17:08.687Z,13.30
2023-05-11T04:19:37.193Z,13.40
2023-05-11T04:22:09.345Z,13.40
2023-05-11T04:24:55.566Z,13.40
2023-05-11T04:27:23.283Z,13.40
2023-05-11T04:29:55.211Z,13.50
2023-05-11T04:32:22.319Z,13.30
2023-05-11T04:34:50.149Z,13.60
2023-05-11T04:37:21.218Z,13.40
2023-05-11T04:40:06.069Z,13.40
2023-05-11T04:42:38.182Z,13.40
2023-05-11T04:45:06.215Z,13.40
2023-05-11T04:47:36.709Z,13.40
2023-05-11T04:50:04.581Z,13.40
2023-05-11T04:52:36.341Z,13.40
2023-05-11T04:55:31.290Z,13.40
2023-05-11T04:58:17.128Z,13.30
2023-05-11T05:00:54.675Z,13.30
2023-05-11T05:03:28.719Z,13.40
2023-05-11T05:05:57.287Z,13.40
2023-05-11T05:08:30.407Z,13.40
2023-05-11T05:11:01.415Z,13.40
2023-05-11T05:13:31.915Z,13.60
2023-05-11T05:16:00.190Z,13.50
2023-05-11T05:18:29.805Z,13.60
2023-05-11T05:20:57.057Z,13.60
2023-05-11T05:24:09.182Z,13.70
2023-05-11T05:26:36.301Z,13.70
2023-05-11T05:29:07.240Z,13.60
2023-05-11T05:31:35.767Z,13.60
2023-05-11T05:34:02.981Z,13.60
2023-05-11T05:36:34.831Z,13.50
2023-05-11T05:39:10.092Z,13.60
2023-05-11T05:41:37.122Z,13.60
2023-05-11T05:44:07.228Z,13.60
2023-05-11T05:46:35.651Z,13.70
2023-05-11T05:49:10.241Z,13.80
2023-05-11T05:51:37.702Z,13.80
2023-05-11T05:54:05.110Z,13.90
2023-05-11T05:56:36.004Z,13.90
2023-05-11T05:59:04.112Z,13.90
2023-05-11T06:01:33.117Z,13.90
2023-05-11T06:04:04.797Z,14.00
2023-05-11T06:06:38.041Z,14.00
2023-05-11T06:09:11.541Z,14.00
2023-05-11T06:11:43.606Z,14.20
2023-05-11T06:14:11.089Z,14.20
2023-05-11T06:31:13.380Z,14.40
2023-05-11T06:40:37.484Z,14.40
2023-05-11T07:01:18.260Z,14.70
2023-05-11T07:04:28.756Z,14.70
2023-05-11T07:07:04.457Z,14.70
2023-05-11T07:13:33.478Z,14.70
2023-05-11T07:16:06.903Z,14.80
2023-05-11T07:26:09.745Z,14.80
2023-05-11T07:28:37.055Z,14.80
2023-05-11T07:31:04.257Z,15.00
2023-05-11T07:33:31.133Z,15.20
2023-05-11T07:35:57.919Z,15.30
2023-05-11T07:38:24.656Z,15.30
2023-05-11T07:40:51.386Z,15.40
2023-05-11T07:43:18.090Z,15.40
2023-05-11T07:45:45.498Z,15.50
2023-05-11T07:48:12.341Z,15.60
2023-05-11T07:50:39.032Z,15.60
2023-05-11T07:53:05.778Z,15.60
2023-05-11T07:55:33.302Z,15.70
2023-05-11T07:57:59.993Z,15.80
2023-05-11T08:00:26.875Z,15.80
2023-05-11T08:02:53.861Z,15.90
2023-05-11T08:05:21.244Z,16.00
2023-05-11T08:07:48.172Z,16.10
2023-05-11T08:10:14.883Z,16.20
2023-05-11T08:12:41.587Z,16.20
2023-05-11T08:15:08.822Z,16.20
2023-05-11T08:17:36.469Z,16.20
2023-05-11T08:20:06.752Z,16.20
2023-05-11T08:22:33.498Z,16.30
2023-05-11T08:25:00.201Z,16.30
2023-05-11T08:27:26.870Z,16.40
2023-05-11T08:29:55.065Z,16.50
2023-05-11T08:32:21.820Z,16.60
2023-05-11T08:34:48.539Z,16.80
2023-05-11T08:37:15.376Z,16.90
2023-05-11T08:42:14.575Z,17.40
2023-05-11T08:44:43.248Z,17.70
2023-05-11T08:49:41.188Z,18.80
2023-05-11T08:52:08.463Z,19.40
2023-05-11T08:54:35.227Z,19.50
2023-05-11T08:57:02.945Z,19.80
2023-05-11T08:59:30.063Z,20.00
2023-05-11T09:01:59.411Z,20.00
2023-05-11T09:04:27.180Z,20.00
2023-05-11T09:06:54.907Z,19.90
2023-05-11T09:09:21.651Z,19.80
2023-05-11T09:11:49.061Z,19.70
2023-05-11T09:14:15.842Z,19.70
2023-05-11T09:16:42.718Z,19.60
2023-05-11T09:19:15.885Z,19.60
2023-05-11T09:21:42.755Z,19.70
2023-05-11T09:24:13.087Z,19.80
2023-05-11T09:26:40.226Z,19.90
2023-05-11T09:29:07.132Z,19.90
2023-05-11T09:31:45.178Z,20.00
2023-05-11T09:34:21.627Z,20.10
2023-05-11T09:36:53.100Z,20.20
2023-05-11T09:39:42.070Z,20.30
2023-05-11T09:42:21.747Z,20.40
2023-05-11T09:44:48.963Z,20.60
2023-05-11T09:47:21.227Z,20.80
2023-05-11T09:49:48.625Z,20.90
2023-05-11T09:52:18.606Z,20.80
2023-05-11T09:54:48.309Z,20.80
2023-05-11T09:57:23.009Z,21.00
2023-05-11T09:59:50.211Z,21.00
2023-05-11T10:02:29.730Z,21.10
2023-05-11T10:05:01.430Z,21.10
2023-05-11T10:07:36.035Z,21.30
2023-05-11T10:10:05.397Z,21.40
2023-05-11T10:12:33.795Z,21.20
2023-05-11T10:15:08.861Z,21.00
2023-05-11T10:17:36.973Z,21.00
2023-05-11T10:20:05.734Z,21.10
2023-05-11T10:22:32.844Z,21.20
2023-05-11T10:25:00.357Z,21.10
2023-05-11T10:27:27.612Z,21.10
2023-05-11T10:29:54.462Z,21.00
2023-05-11T10:32:21.697Z,21.00
2023-05-11T10:34:50.462Z,21.10
2023-05-11T10:37:17.648Z,21.20
2023-05-11T10:39:48.485Z,21.40
2023-05-11T10:42:33.620Z,21.40
2023-05-11T10:45:22.080Z,21.50
2023-05-11T10:48:20.049Z,21.60
2023-05-11T10:51:02.030Z,21.70
2023-05-11T10:53:53.456Z,21.60
2023-05-11T10:56:38.706Z,21.60
2023-05-11T10:59:22.397Z,21.70
2023-05-11T11:01:58.886Z,21.90
2023-05-11T11:04:27.243Z,22.00
2023-05-11T11:07:06.013Z,22.00
2023-05-11T11:10:01.583Z,22.00
2023-05-11T11:12:29.972Z,22.00
2023-05-11T11:15:06.177Z,22.00
2023-05-11T11:17:35.894Z,22.00
2023-05-11T11:20:04.630Z,21.90
2023-05-11T11:22:41.639Z,21.80
2023-05-11T11:25:09.875Z,21.90
2023-05-11T11:27:45.886Z,21.80
2023-05-11T11:30:22.006Z,21.90
2023-05-11T11:32:54.132Z,22.00
2023-05-11T11:35:39.500Z,22.00
2023-05-11T11:38:11.511Z,22.10
2023-05-11T11:43:22.011Z,22.30
2023-05-11T11:45:53.159Z,22.30
2023-05-11T11:48:29.448Z,22.30
2023-05-11T11:51:09.078Z,22.30
2023-05-11T11:53:40.739Z,22.70
2023-05-11T11:56:09.109Z,22.60
2023-05-11T11:58:41.831Z,22.60
2023-05-11T12:01:10.384Z,22.80
2023-05-11T12:03:37.977Z,22.90
2023-05-11T12:06:09.556Z,23.00
2023-05-11T12:08:38.190Z,23.10
2023-05-11T12:11:05.808Z,23.10
2023-05-11T12:13:34.133Z,23.00
2023-05-11T12:16:13.927Z,23.00
2023-05-11T12:18:42.416Z,23.10
2023-05-11T12:21:23.028Z,23.10
2023-05-11T12:23:57.697Z,23.20
2023-05-11T12:26:26.325Z,23.20
2023-05-11T12:29:10.695Z,23.20
2023-05-11T12:31:41.746Z,23.30
2023-05-11T12:34:17.892Z,23.30
2023-05-11T12:36:46.126Z,23.40
2023-05-11T12:39:23.610Z,23.70
2023-05-11T12:41:52.957Z,23.70
2023-05-11T12:44:22.270Z,23.80
2023-05-11T12:46:50.168Z,23.70
2023-05-11T12:49:25.074Z,23.80
2023-05-11T12:52:03.113Z,23.90
2023-05-11T12:54:31.258Z,23.90
2023-05-11T12:56:58.551Z,23.90
2023-05-11T12:59:26.416Z,24.00
2023-05-11T13:01:56.071Z,24.00
2023-05-11T13:04:30.555Z,24.10
2023-05-11T13:06:57.473Z,24.10
2023-05-11T13:09:27.463Z,23.90
2023-05-11T13:12:20.821Z,23.80
2023-05-11T13:14:49.439Z,23.70
2023-05-11T13:17:36.986Z,23.70
2023-05-11T13:20:19.757Z,23.50
2023-05-11T13:22:48.207Z,23.30
2023-05-11T13:25:16.833Z,23.10
2023-05-11T13:27:43.912Z,23.10
2023-05-11T13:30:11.484Z,22.90
2023-05-11T13:32:39.047Z,22.70
2023-05-11T13:35:06.986Z,22.50
2023-05-11T13:37:33.731Z,22.40
2023-05-11T13:40:00.870Z,22.20
2023-05-11T13:42:28.205Z,22.10
2023-05-11T13:44:55.048Z,22.00
2023-05-11T13:47:21.743Z,21.90
2023-05-11T13:49:48.931Z,21.80
2023-05-11T13:52:15.954Z,21.90
2023-05-11T13:54:42.667Z,21.70
2023-05-11T13:57:09.461Z,21.70
2023-05-11T13:59:36.285Z,21.70
2023-05-11T14:02:03.190Z,21.70
2023-05-11T14:04:29.924Z,21.80
2023-05-11T14:06:56.929Z,21.90
2023-05-11T14:09:23.878Z,21.80
2023-05-11T14:11:50.797Z,21.90
2023-05-11T14:14:18.038Z,21.70
2023-05-11T14:16:45.021Z,21.70
2023-05-11T14:19:12.029Z,21.60
2023-05-11T14:21:38.893Z,21.60
2023-05-11T14:24:11.993Z,21.50
2023-05-11T14:26:40.310Z,21.40
2023-05-11T14:29:07.509Z,21.30
2023-05-11T14:31:35.760Z,21.30
2023-05-11T14:34:03.903Z,21.20
2023-05-11T14:36:31.774Z,21.00
2023-05-11T14:38:58.435Z,21.00
2023-05-11T14:41:25.646Z,21.00
2023-05-11T14:43:52.411Z,21.00
2023-05-11T14:46:19.576Z,20.90
2023-05-11T14:48:46.420Z,20.70
2023-05-11T14:51:13.124Z,20.40
2023-05-11T14:53:39.918Z,20.00
2023-05-11T14:56:07.230Z,19.60
2023-05-11T14:58:33.894Z,19.30
2023-05-11T15:01:00.801Z,19.00
2023-05-11T15:03:27.900Z,18.70
2023-05-11T15:05:54.648Z,18.50
2023-05-11T15:08:29.797Z,18.30
2023-05-11T15:10:57.416Z,18.30
2023-05-11T15:13:24.243Z,18.10
2023-05-11T15:15:51.619Z,18.00
2023-05-11T15:18:18.853Z,18.00
2023-05-11T15:20:46.630Z,18.00
2023-05-11T15:23:16.754Z,17.90
2023-05-11T15:25:44.842Z,17.90
2023-05-11T15:28:11.940Z,17.80
2023-05-11T15:30:38.734Z,17.80
2023-05-11T15:33:05.643Z,17.80
2023-05-11T15:35:35.582Z,17.80
2023-05-11T15:38:03.545Z,17.80
2023-05-11T15:40:30.668Z,17.80
2023-05-11T15:42:58.797Z,17.90
2023-05-11T15:45:26.166Z,18.00
2023-05-11T15:47:54.068Z,18.00
2023-05-11T15:50:21.219Z,18.10
2023-05-11T15:52:48.202Z,18.20
2023-05-11T15:55:14.947Z,18.30
2023-05-11T15:57:41.716Z,18.40
2023-05-11T16:00:10.577Z,18.50
2023-05-11T16:02:37.570Z,18.50
2023-05-11T16:05:04.551Z,18.50
2023-05-11T16:07:31.496Z,18.60
2023-05-11T16:09:58.182Z,18.50
2023-05-11T16:12:24.895Z,18.50
2023-05-11T16:14:51.645Z,18.60
2023-05-11T16:17:18.458Z,18.60
2023-05-11T16:19:45.187Z,18.60
2023-05-11T16:22:12.098Z,18.60
2023-05-11T16:24:38.925Z,18.60
2023-05-11T16:27:05.760Z,18.70
2023-05-11T16:29:32.555Z,18.80
2023-05-11T16:31:59.304Z,18.80
2023-05-11T16:34:27.227Z,18.80
2023-05-11T16:36:54.052Z,18.70
2023-05-11T16:39:21.538Z,18.70
2023-05-11T16:41:48.308Z,18.70
2023-05-11T16:44:15.042Z,18.70
2023-05-11T16:46:41.873Z,18.70
2023-05-11T16:49:08.600Z,18.60
2023-05-11T16:51:35.375Z,18.70
2023-05-11T16:54:02.172Z,18.60
2023-05-11T16:56:28.862Z,18.60
2023-05-11T16:58:55.520Z,18.50
2023-05-11T17:01:22.242Z,18.50
2023-05-11T17:03:49.114Z,18.50
2023-05-11T17:06:20.709Z,18.50
2023-05-11T17:08:47.952Z,18.40
2023-05-11T17:11:14.650Z,18.40
2023-05-11T17:13:41.368Z,18.30
2023-05-11T17:16:08.131Z,18.20
2023-05-11T17:18:35.034Z,18.20
2023-05-11T17:21:01.868Z,18.20
2023-05-11T17:23:30.230Z,18.20
2023-05-11T17:25:57.310Z,18.20
2023-05-11T17:28:24.220Z,18.10
2023-05-11T17:30:54.286Z,18.10
2023-05-11T17:33:21.099Z,18.10
2023-05-11T17:35:48.246Z,18.10
2023-05-11T17:38:15.074Z,18.10
2023-05-11T17:40:41.850Z,18.10
2023-05-11T17:43:08.539Z,18.10
2023-05-11T17:45:35.672Z,18.10
2023-05-11T17:48:02.438Z,18.10
2023-05-11T17:50:29.231Z,18.10
2023-05-11T17:52:55.924Z,18.10
2023-05-11T17:55:22.669Z,18.00
2023-05-11T17:57:51.813Z,18.00
2023-05-11T18:00:19.090Z,18.00
2023-05-11T18:02:51.237Z,17.90
2023-05-11T18:05:18.406Z,17.90
2023-05-11T18:07:45.178Z,17.80
2023-05-11T18:10:12.203Z,17.80
2023-05-11T18:12:38.938Z,17.90
2023-05-11T18:15:06.148Z,17.80
2023-05-11T18:17:33.072Z,17.80
2023-05-11T18:19:59.877Z,17.80
2023-05-11T18:22:26.559Z,17.60
2023-05-11T18:24:53.504Z,17.70
2023-05-11T18:27:20.249Z,17.60
2023-05-11T18:29:46.934Z,17.60
2023-05-11T18:32:13.617Z,17.60
2023-05-11T18:34:41.345Z,17.60
2023-05-11T18:37:09.191Z,17.50
2023-05-11T18:39:36.124Z,17.50
2023-05-11T18:42:02.787Z,17.50
2023-05-11T18:44:29.481Z,17.50
2023-05-11T18:46:56.223Z,17.40
2023-05-11T18:49:23.013Z,17.40
2023-05-11T18:51:49.735Z,17.30
2023-05-11T18:54:16.494Z,17.30
2023-05-11T18:56:43.236Z,17.20
2023-05-11T18:59:09.940Z,17.30
2023-05-11T19:01:46.949Z,17.10
2023-05-11T19:04:17.634Z,17.20
2023-05-11T19:06:44.325Z,16.90
2023-05-11T19:09:11.096Z,16.80
2023-05-11T19:11:37.969Z,16.70
2023-05-11T19:14:04.654Z,16.60
2023-05-11T19:16:32.719Z,16.60
2023-05-11T19:18:59.732Z,16.50
2023-05-11T19:21:26.555Z,16.50
2023-05-11T19:23:53.211Z,16.30
2023-05-11T19:26:20.066Z,16.20
2023-05-11T19:28:46.744Z,16.00
2023-05-11T19:31:13.442Z,15.90
2023-05-11T19:33:40.302Z,15.80
2023-05-11T19:36:07.235Z,15.70
2023-05-11T19:38:35.878Z,15.70
2023-05-11T19:41:03.452Z,15.60
2023-05-11T19:43:30.169Z,15.60
2023-05-11T19:45:56.903Z,15.60
2023-05-11T19:48:23.606Z,15.60
2023-05-11T19:50:50.303Z,15.50
2023-05-11T19:53:17.002Z,15.50
2023-05-11T19:55:45.407Z,15.50
2023-05-11T19:58:14.178Z,15.50
2023-05-11T20:00:41.362Z,15.50
2023-05-11T20:03:08.469Z,15.40
2023-05-11T20:05:35.299Z,15.40
2023-05-11T20:08:01.986Z,15.40
2023-05-11T20:10:28.700Z,15.40
2023-05-11T20:12:56.423Z,15.30
2023-05-11T20:15:23.225Z,15.30
2023-05-11T20:17:50.239Z,15.20
2023-05-11T20:20:17.139Z,15.30
2023-05-11T20:22:44.361Z,15.30
2023-05-11T20:25:17.837Z,15.20
2023-05-11T20:27:45.901Z,15.20
2023-05-11T20:30:13.083Z,15.20
2023-05-11T20:32:39.836Z,15.10
2023-05-11T20:35:07.071Z,15.10
2023-05-11T20:37:33.789Z,15.00
2023-05-11T20:40:00.661Z,15.00
2023-05-11T20:42:27.490Z,14.90
2023-05-11T20:44:54.274Z,14.80
2023-05-11T20:47:20.948Z,14.90
2023-05-11T20:49:47.826Z,14.80
2023-05-11T20:52:14.578Z,14.80
2023-05-11T20:54:41.469Z,14.70
2023-05-11T20:57:08.329Z,14.70
2023-05-11T21:02:04.901Z,14.60
2023-05-11T21:04:31.713Z,14.50
2023-05-11T21:06:58.584Z,14.50
2023-05-11T21:09:25.592Z,14.50
2023-05-11T21:11:52.432Z,14.40
2023-05-11T21:14:19.133Z,14.40
2023-05-11T21:16:46.142Z,14.50
2023-05-11T21:19:13.006Z,14.40
2023-05-11T21:21:39.675Z,14.40
2023-05-11T21:24:06.417Z,14.40
2023-05-11T21:26:33.194Z,14.30
2023-05-11T21:28:59.937Z,14.30
2023-05-11T21:31:27.148Z,14.40
2023-05-11T21:33:54.406Z,14.40
2023-05-11T21:36:22.204Z,14.30
2023-05-11T21:38:49.650Z,14.30
2023-05-11T21:41:16.921Z,14.20
2023-05-11T21:43:43.680Z,14.20
2023-05-11T21:46:10.447Z,14.20
2023-05-11T21:48:37.144Z,14.20
2023-05-11T21:51:04.130Z,14.10
2023-05-11T21:53:31.023Z,14.10
2023-05-11T21:55:57.805Z,14.10
2023-05-11T21:58:24.560Z,14.00
2023-05-11T22:00:51.302Z,13.90
2023-05-11T22:03:18.064Z,13.80
2023-05-11T22:05:44.822Z,13.80
2023-05-11T22:08:15.567Z,13.70
2023-05-11T22:10:43.308Z,13.70
2023-05-11T22:13:10.387Z,13.70
2023-05-11T22:15:37.274Z,13.60
2023-05-11T22:18:05.043Z,13.70
2023-05-11T22:20:32.080Z,13.60
2023-05-11T22:22:59.350Z,13.60
2023-05-11T22:25:26.551Z,13.50
2023-05-11T22:27:53.345Z,13.50
2023-05-11T22:30:20.561Z,13.50
2023-05-11T22:32:47.495Z,13.50
2023-05-11T22:35:14.422Z,13.50
2023-05-11T22:37:41.159Z,13.40
2023-05-11T22:40:08.769Z,13.50
2023-05-11T22:42:35.690Z,13.40
2023-05-11T22:45:02.486Z,13.40
2023-05-11T22:47:29.444Z,13.40
2023-05-11T22:49:56.426Z,13.40
2023-05-11T22:52:23.165Z,13.40
2023-05-11T22:54:54.674Z,13.40
2023-05-11T22:57:24.230Z,13.40
2023-05-11T22:59:51.022Z,13.40
2023-05-11T23:02:17.874Z,13.40
2023-05-11T23:04:52.427Z,13.40
2023-05-11T23:07:19.680Z,13.40
2023-05-11T23:09:46.593Z,13.40
2023-05-11T23:12:13.527Z,13.40
2023-05-11T23:14:40.372Z,13.30
2023-05-11T23:17:07.172Z,13.30
2023-05-11T23:19:33.977Z,13.30
2023-05-11T23:22:00.900Z,13.30
2023-05-11T23:24:28.894Z,13.20
2023-05-11T23:26:55.959Z,13.20
2023-05-11T23:29:22.826Z,13.20
2023-05-11T23:31:51.024Z,13.10
2023-05-11T23:34:17.871Z,13.10
2023-05-11T23:36:44.704Z,13.00
2023-05-11T23:39:11.403Z,13.10
2023-05-11T23:41:38.499Z,13.00
2023-05-11T23:44:05.437Z,13.00
2023-05-11T23:46:32.594Z,13.00
2023-05-11T23:48:59.304Z,13.00
2023-05-11T23:51:25.971Z,13.00
2023-05-11T23:53:52.784Z,12.90
2023-05-11T23:56:19.526Z,12.90
2023-05-11T23:58:46.367Z,12.90
